Time;durP1;ratioP1;P1;durP2;ratioP2;P2;SDS_P1;SDS_P2;PMS_P1;PMS_P2;Temp;Humidity;BMP_temperature;BMP_pressure;BME280_temperature;BME280_humidity;BME280_pressure;Samples;Min_cycle;Max_cycle;Signal;HPM_P1;HPM_P2
2022/09/02 00:01:54;;;;;;;1.52;0.70;;;8.20;99.90;;;;;;5017712;28;20408;-80
2022/09/02 00:04:24;;;;;;;1.08;0.50;;;8.20;99.90;;;;;;5017966;28;20456;-80
2022/09/02 00:06:53;;;;;;;1.42;0.80;;;8.20;99.90;;;;;;5018101;28;20418;-80
2022/09/02 00:09:23;;;;;;;1.45;0.70;;;8.10;99.90;;;;;;5020238;28;20398;-80
2022/09/02 00:11:52;;;;;;;1.77;0.77;;;8.00;99.90;;;;;;5019295;28;20454;-80
2022/09/02 00:14:24;;;;;;;1.20;0.80;;;8.00;99.90;;;;;;5018886;28;20402;-80
2022/09/02 00:16:52;;;;;;;1.33;0.80;;;8.00;99.90;;;;;;5008655;28;20448;-80
2022/09/02 00:19:24;;;;;;;2.30;0.70;;;7.90;99.90;;;;;;5008539;28;20403;-80
2022/09/02 00:21:53;;;;;;;1.20;0.75;;;7.90;99.90;;;;;;5011096;28;20406;-81
2022/09/02 00:24:22;;;;;;;2.17;0.70;;;7.90;99.90;;;;;;5050689;28;20409;-80
2022/09/02 00:26:50;;;;;;;1.13;0.70;;;8.00;99.90;;;;;;5018214;28;20430;-81
2022/09/02 00:29:24;;;;;;;1.35;0.75;;;8.00;99.90;;;;;;5005553;28;20402;-79
2022/09/02 00:31:52;;;;;;;1.67;0.70;;;8.10;99.90;;;;;;5007653;28;20391;-80
2022/09/02 00:34:20;;;;;;;1.27;0.70;;;8.10;99.90;;;;;;5008309;28;20443;-80
2022/09/02 00:36:47;;;;;;;2.13;0.90;;;8.00;99.90;;;;;;5008822;28;20391;-81
2022/09/02 00:39:15;;;;;;;1.50;0.80;;;8.10;99.90;;;;;;5008255;28;20418;-80
2022/09/02 00:41:44;;;;;;;2.15;0.75;;;8.10;99.90;;;;;;5011696;28;20976;-80
2022/09/02 00:44:15;;;;;;;2.50;0.70;;;8.10;99.90;;;;;;5018992;28;20755;-81
2022/09/02 00:46:44;;;;;;;4.50;0.97;;;8.10;99.90;;;;;;5018673;28;20441;-81
2022/09/02 00:49:13;;;;;;;1.10;0.70;;;8.10;99.90;;;;;;5018552;28;20432;-78
2022/09/02 00:51:44;;;;;;;1.20;0.80;;;8.10;99.90;;;;;;5017937;28;20386;-81
2022/09/02 00:54:14;;;;;;;1.73;0.80;;;8.10;99.90;;;;;;5018726;28;20411;-81
2022/09/02 00:56:45;;;;;;;0.95;0.73;;;8.00;99.90;;;;;;5016475;28;20878;-81
2022/09/02 00:59:20;;;;;;;2.58;0.90;;;8.00;99.90;;;;;;5021925;28;20774;-80
2022/09/02 01:01:48;;;;;;;2.30;0.90;;;8.00;99.90;;;;;;5014065;28;20448;-80
2022/09/02 01:04:16;;;;;;;1.13;0.80;;;8.00;99.90;;;;;;5018358;28;20792;-82
2022/09/02 01:06:43;;;;;;;1.75;0.80;;;8.10;99.90;;;;;;5010918;28;20410;-80
2022/09/02 01:09:15;;;;;;;2.88;0.73;;;8.10;99.90;;;;;;5017254;28;20398;-79
2022/09/02 01:11:52;;;;;;;1.60;0.80;;;8.30;99.90;;;;;;5019393;28;20436;-81
2022/09/02 01:14:20;;;;;;;1.17;0.70;;;8.30;99.90;;;;;;5019131;28;20466;-80
2022/09/02 01:16:51;;;;;;;1.98;0.75;;;8.30;99.90;;;;;;5035090;28;20450;-80
2022/09/02 01:19:25;;;;;;;3.70;0.90;;;8.10;99.90;;;;;;5042755;28;20427;-80
2022/09/02 01:21:55;;;;;;;2.00;0.73;;;8.20;99.90;;;;;;5007740;28;20395;-80
2022/09/02 01:24:29;;;;;;;1.52;0.88;;;8.20;99.90;;;;;;5011325;28;20399;-80
2022/09/02 01:26:58;;;;;;;2.30;0.80;;;8.30;99.90;;;;;;5007735;28;20905;-79
2022/09/02 01:29:27;;;;;;;2.58;0.77;;;8.30;99.90;;;;;;5016929;28;20830;-80
2022/09/02 01:31:55;;;;;;;0.90;0.80;;;8.40;99.90;;;;;;5012549;28;20456;-79
2022/09/02 01:34:23;;;;;;;1.15;0.70;;;8.40;99.90;;;;;;5016622;28;20414;-79
2022/09/02 01:36:51;;;;;;;2.28;0.90;;;8.40;99.90;;;;;;5023479;28;20427;-80
2022/09/02 01:39:19;;;;;;;2.05;0.80;;;8.30;99.90;;;;;;5008142;28;20406;-79
2022/09/02 01:41:47;;;;;;;2.45;0.88;;;8.30;99.90;;;;;;5012643;28;20765;-80
2022/09/02 01:44:16;;;;;;;1.60;0.73;;;8.30;99.90;;;;;;5013881;28;20480;-80
2022/09/02 01:46:48;;;;;;;1.98;0.80;;;8.30;99.90;;;;;;5053903;28;20751;-81
2022/09/02 01:49:16;;;;;;;1.30;0.80;;;8.20;99.90;;;;;;5020180;28;20505;-80
2022/09/02 01:51:44;;;;;;;1.40;0.80;;;8.30;99.90;;;;;;5017975;28;20403;-80
2022/09/02 01:54:11;;;;;;;1.27;0.80;;;8.20;99.90;;;;;;5024015;28;20486;-79
2022/09/02 01:56:39;;;;;;;2.10;0.80;;;8.20;99.90;;;;;;5023471;28;20408;-80
2022/09/02 01:59:07;;;;;;;2.35;0.90;;;8.30;99.90;;;;;;5020166;28;20895;-79
2022/09/02 02:01:35;;;;;;;2.17;1.00;;;8.30;99.90;;;;;;5013109;28;20740;-81
2022/09/02 02:04:03;;;;;;;2.72;1.05;;;8.30;99.90;;;;;;5021036;28;20401;-80
2022/09/02 02:06:31;;;;;;;1.85;0.80;;;8.40;99.90;;;;;;5020977;28;20508;-80
2022/09/02 02:08:59;;;;;;;3.25;0.90;;;8.40;99.90;;;;;;5020100;28;20990;-80
2022/09/02 02:11:27;;;;;;;1.20;0.88;;;8.40;99.90;;;;;;5018821;28;20455;-80
2022/09/02 02:13:57;;;;;;;1.80;0.70;;;8.40;99.90;;;;;;5018709;28;20421;-80
2022/09/02 02:16:25;;;;;;;1.95;1.00;;;8.40;99.90;;;;;;5018939;28;20504;-79
2022/09/02 02:18:53;;;;;;;1.73;0.90;;;8.30;99.90;;;;;;5018851;28;20403;-79
2022/09/02 02:21:21;;;;;;;3.22;1.08;;;8.40;99.90;;;;;;5020167;28;20400;-79
2022/09/02 02:23:50;;;;;;;2.45;0.90;;;8.30;99.90;;;;;;5017998;28;20498;-80
2022/09/02 02:26:17;;;;;;;2.08;0.98;;;8.30;99.90;;;;;;5017684;28;20417;-80
2022/09/02 02:28:47;;;;;;;1.42;0.90;;;8.30;99.90;;;;;;5052988;28;20410;-80
2022/09/02 02:31:15;;;;;;;2.53;0.90;;;8.30;99.90;;;;;;5018200;28;20404;-80
2022/09/02 02:33:43;;;;;;;2.40;1.13;;;8.40;99.90;;;;;;5019470;28;20869;-79
2022/09/02 02:36:11;;;;;;;3.05;0.88;;;8.40;99.90;;;;;;5018607;28;20421;-79
2022/09/02 02:38:39;;;;;;;1.58;0.88;;;8.40;99.90;;;;;;5019625;28;20454;-80
2022/09/02 02:41:09;;;;;;;1.15;0.80;;;8.40;99.90;;;;;;5016553;28;20399;-80
2022/09/02 02:43:36;;;;;;;1.30;0.83;;;8.40;99.90;;;;;;5019639;28;20399;-80
2022/09/02 02:46:06;;;;;;;2.20;0.90;;;8.40;99.90;;;;;;5020522;28;20396;-80
2022/09/02 02:48:35;;;;;;;1.45;0.80;;;8.40;99.90;;;;;;5018382;28;20504;-80
2022/09/02 02:51:05;;;;;;;3.13;0.88;;;8.40;99.90;;;;;;5010856;28;20409;-80
2022/09/02 02:53:35;;;;;;;1.83;0.90;;;8.30;99.90;;;;;;5018693;28;20498;-80
2022/09/02 02:56:04;;;;;;;2.30;1.10;;;8.30;99.90;;;;;;5014808;28;20908;-80
2022/09/02 02:58:31;;;;;;;1.50;0.70;;;8.40;99.90;;;;;;5018245;28;20399;-80
2022/09/02 03:01:00;;;;;;;2.03;0.90;;;8.40;99.90;;;;;;5024615;28;20450;-81
2022/09/02 03:03:30;;;;;;;1.37;0.80;;;8.40;99.90;;;;;;5022462;28;20404;-80
2022/09/02 03:05:58;;;;;;;1.98;0.90;;;8.20;99.90;;;;;;5018263;28;20890;-80
2022/09/02 03:08:27;;;;;;;1.15;0.80;;;8.20;99.90;;;;;;5025097;28;20639;-79
2022/09/02 03:10:56;;;;;;;1.57;0.80;;;8.30;99.90;;;;;;5018443;28;20476;-81
2022/09/02 03:13:27;;;;;;;2.10;0.80;;;8.30;99.90;;;;;;5018423;28;20978;-81
2022/09/02 03:15:59;;;;;;;2.27;0.90;;;8.20;99.90;;;;;;5016506;28;20407;-79
2022/09/02 03:18:27;;;;;;;2.43;0.93;;;8.20;99.90;;;;;;5014137;28;20917;-80
2022/09/02 03:20:56;;;;;;;4.22;1.50;;;8.30;99.90;;;;;;5023483;28;20900;-80
2022/09/02 03:23:25;;;;;;;3.08;1.30;;;8.30;99.90;;;;;;5017693;28;20421;-81
2022/09/02 03:25:53;;;;;;;3.20;1.10;;;8.30;99.90;;;;;;5017921;28;20913;-79
2022/09/02 03:28:31;;;;;;;2.40;0.98;;;8.30;99.90;;;;;;5017748;28;20407;-81
2022/09/02 03:31:01;;;;;;;2.67;1.10;;;8.30;99.90;;;;;;5049249;28;20403;-80
2022/09/02 03:33:28;;;;;;;2.90;1.20;;;8.20;99.90;;;;;;5011730;28;20406;-80
2022/09/02 03:35:56;;;;;;;1.70;0.80;;;8.20;99.90;;;;;;5019782;28;20410;-80
2022/09/02 03:38:25;;;;;;;1.63;0.80;;;8.30;99.90;;;;;;5019744;28;20820;-80
2022/09/02 03:40:52;;;;;;;2.58;1.30;;;8.30;99.90;;;;;;5013857;28;20400;-80
2022/09/02 03:43:20;;;;;;;1.30;1.00;;;8.30;99.90;;;;;;5009244;28;20403;-80
2022/09/02 03:45:48;;;;;;;2.80;1.30;;;8.30;99.90;;;;;;5017023;28;20401;-79
2022/09/02 03:48:16;;;;;;;2.17;1.25;;;8.30;99.90;;;;;;5022055;28;20474;-79
2022/09/02 03:50:46;;;;;;;3.45;1.10;;;8.30;99.90;;;;;;5034093;28;20498;-80
2022/09/02 03:53:18;;;;;;;2.10;1.20;;;8.30;99.90;;;;;;5018554;28;20434;-80
2022/09/02 03:55:55;;;;;;;2.03;0.90;;;8.30;99.90;;;;;;5018589;28;20410;-80
2022/09/02 03:58:25;;;;;;;1.88;0.90;;;8.30;99.90;;;;;;5024820;28;20390;-81
2022/09/02 04:00:55;;;;;;;1.60;0.88;;;8.30;99.90;;;;;;5019742;27;20893;-81
2022/09/02 04:03:24;;;;;;;2.08;1.00;;;8.30;99.90;;;;;;5022252;28;20952;-81
2022/09/02 04:05:53;;;;;;;2.75;1.00;;;8.40;99.90;;;;;;5010419;28;20406;-82
2022/09/02 04:08:26;;;;;;;1.33;0.98;;;8.40;99.90;;;;;;5016827;28;20437;-81
2022/09/02 04:10:58;;;;;;;3.17;0.90;;;8.50;99.90;;;;;;5013111;27;20445;-81
2022/09/02 04:13:26;;;;;;;2.55;1.02;;;8.40;99.90;;;;;;5015761;28;20410;-81
2022/09/02 04:15:53;;;;;;;1.70;0.80;;;8.40;99.90;;;;;;5016985;28;20401;-82
2022/09/02 04:18:28;;;;;;;2.03;1.02;;;8.30;99.90;;;;;;5018466;28;20414;-82
2022/09/02 04:20:59;;;;;;;1.30;1.00;;;8.30;99.90;;;;;;5017987;28;20396;-82
2022/09/02 04:23:27;;;;;;;1.83;0.90;;;8.30;99.90;;;;;;5019599;28;20410;-79
2022/09/02 04:25:55;;;;;;;1.77;1.00;;;8.30;99.90;;;;;;5024390;28;20403;-80
2022/09/02 04:28:23;;;;;;;1.30;0.80;;;8.40;99.90;;;;;;5019130;28;20424;-82
2022/09/02 04:30:52;;;;;;;1.30;0.90;;;8.30;99.90;;;;;;5018685;28;20414;-81
2022/09/02 04:33:20;;;;;;;1.80;0.80;;;8.30;99.90;;;;;;5015520;28;20416;-81
2022/09/02 04:35:48;;;;;;;1.95;0.90;;;8.30;99.90;;;;;;5016669;28;20479;-82
2022/09/02 04:38:18;;;;;;;2.58;1.00;;;8.30;99.90;;;;;;5016293;28;20403;-82
2022/09/02 04:40:47;;;;;;;2.97;0.80;;;8.20;99.90;;;;;;5024015;28;20383;-83
2022/09/02 04:43:17;;;;;;;1.98;0.85;;;8.20;99.90;;;;;;5022101;28;20393;-82
2022/09/02 04:45:46;;;;;;;2.20;0.80;;;8.30;99.90;;;;;;5015892;28;20474;-82
2022/09/02 04:48:17;;;;;;;1.73;1.13;;;8.30;99.90;;;;;;5016649;28;20914;-81
2022/09/02 04:50:47;;;;;;;1.77;0.90;;;8.30;99.90;;;;;;5019891;28;20733;-80
2022/09/02 04:53:16;;;;;;;2.17;0.73;;;8.30;99.90;;;;;;5028424;28;20524;-80
2022/09/02 04:55:44;;;;;;;3.30;1.30;;;8.30;99.90;;;;;;4999801;28;20419;-82
2022/09/02 04:58:15;;;;;;;1.63;0.80;;;8.20;99.90;;;;;;5023305;28;20405;-81
2022/09/02 05:00:43;;;;;;;1.95;0.70;;;8.20;99.90;;;;;;5017503;28;20411;-81
2022/09/02 05:03:12;;;;;;;2.15;0.80;;;8.20;99.90;;;;;;5053839;28;20405;-81
2022/09/02 05:05:42;;;;;;;2.65;0.90;;;8.20;99.90;;;;;;5016834;28;20439;-81
2022/09/02 05:08:12;;;;;;;2.58;0.80;;;8.30;99.90;;;;;;5016912;28;20418;-78
2022/09/02 05:10:42;;;;;;;1.10;0.70;;;8.30;99.90;;;;;;5017058;28;20434;-82
2022/09/02 05:13:11;;;;;;;1.80;0.90;;;8.30;99.90;;;;;;5014191;28;20992;-82
2022/09/02 05:15:39;;;;;;;2.22;1.00;;;8.30;99.90;;;;;;5018525;28;20401;-81
2022/09/02 05:18:09;;;;;;;1.33;0.98;;;8.30;99.90;;;;;;5021915;28;20407;-82
2022/09/02 05:20:39;;;;;;;1.92;0.80;;;8.40;99.90;;;;;;5019980;28;20422;-80
2022/09/02 05:23:07;;;;;;;1.45;0.70;;;8.40;99.90;;;;;;5019936;28;20407;-81
2022/09/02 05:25:36;;;;;;;1.50;0.77;;;8.40;99.90;;;;;;5017281;28;20396;-80
2022/09/02 05:28:07;;;;;;;2.08;0.70;;;8.50;99.90;;;;;;5018883;28;20403;-81
2022/09/02 05:30:37;;;;;;;1.60;0.87;;;8.50;99.90;;;;;;5019163;28;20403;-81
2022/09/02 05:33:07;;;;;;;2.55;0.80;;;8.50;99.90;;;;;;5002642;28;20491;-81
2022/09/02 05:35:42;;;;;;;1.77;0.80;;;8.50;99.90;;;;;;5019479;28;20437;-79
2022/09/02 05:38:16;;;;;;;1.23;0.90;;;8.60;99.90;;;;;;5016487;28;20419;-80
2022/09/02 05:40:46;;;;;;;1.80;0.80;;;8.60;99.90;;;;;;5015752;28;20758;-79
2022/09/02 05:43:14;;;;;;;3.78;1.05;;;8.60;99.90;;;;;;5037630;28;20410;-81
2022/09/02 05:45:42;;;;;;;2.70;0.75;;;8.60;99.90;;;;;;5021473;28;20417;-81
2022/09/02 05:50:57;;;;;;;1.17;0.70;;;8.70;99.90;;;;;;5017420;28;20510;-82
2022/09/02 05:53:26;;;;;;;1.75;1.00;;;8.70;99.90;;;;;;5016683;28;20436;-79
2022/09/02 05:55:54;;;;;;;1.33;0.80;;;8.70;99.90;;;;;;5017782;28;20440;-80
2022/09/02 05:58:22;;;;;;;1.13;0.80;;;8.80;99.90;;;;;;5019863;28;20765;-81
2022/09/02 06:00:52;;;;;;;3.78;1.30;;;8.80;99.90;;;;;;5018719;28;20767;-81
2022/09/02 06:03:20;;;;;;;1.00;0.60;;;8.80;99.90;;;;;;5017394;28;20880;-81
2022/09/02 06:05:58;;;;;;;2.17;1.00;;;8.80;99.90;;;;;;5019144;28;20522;-81
2022/09/02 06:08:37;;;;;;;2.10;1.15;;;8.90;99.90;;;;;;5018990;28;20414;-81
2022/09/02 06:11:08;;;;;;;1.45;0.98;;;8.90;99.90;;;;;;5020143;28;20432;-80
2022/09/02 06:13:39;;;;;;;1.40;0.90;;;9.00;99.90;;;;;;5018909;28;20411;-80
2022/09/02 06:16:09;;;;;;;3.85;1.27;;;9.00;99.90;;;;;;5018936;28;20765;-79
2022/09/02 06:18:40;;;;;;;0.75;0.70;;;9.00;99.90;;;;;;5019364;28;20418;-81
2022/09/02 06:21:10;;;;;;;1.20;0.77;;;9.00;99.90;;;;;;5018421;28;20486;-80
2022/09/02 06:23:42;;;;;;;1.55;0.80;;;9.00;99.90;;;;;;5017306;28;20467;-80
2022/09/02 06:26:12;;;;;;;1.35;0.73;;;9.10;99.90;;;;;;5020510;28;20407;-80
2022/09/02 06:28:39;;;;;;;0.90;0.70;;;9.10;99.90;;;;;;5018185;28;20854;-81
2022/09/02 06:31:17;;;;;;;1.50;0.82;;;9.20;99.90;;;;;;5013504;28;20407;-80
2022/09/02 06:33:47;;;;;;;1.30;0.70;;;9.20;99.90;;;;;;5017747;28;20474;-80
2022/09/02 06:36:18;;;;;;;0.70;0.60;;;9.20;99.90;;;;;;5053584;27;20441;-79
2022/09/02 06:38:48;;;;;;;1.98;0.77;;;9.20;99.90;;;;;;5035075;28;20412;-80
2022/09/02 06:41:22;;;;;;;1.42;0.70;;;9.30;99.90;;;;;;5013346;28;20499;-82
2022/09/02 06:43:52;;;;;;;5.60;1.33;;;9.30;99.90;;;;;;5052291;28;20502;-82
2022/09/02 06:46:25;;;;;;;3.53;0.93;;;9.30;99.90;;;;;;5037849;27;20408;-82
2022/09/02 06:48:56;;;;;;;1.10;0.80;;;9.40;99.90;;;;;;5019615;27;20413;-82
2022/09/02 06:51:38;;;;;;;1.30;0.70;;;9.50;99.90;;;;;;5029293;27;20780;-82
2022/09/02 06:54:09;;;;;;;2.47;0.80;;;9.50;99.90;;;;;;5019976;28;20415;-82
2022/09/02 06:56:41;;;;;;;0.63;0.60;;;9.50;99.90;;;;;;5023305;28;20420;-82
2022/09/02 06:59:19;;;;;;;1.40;0.70;;;9.60;99.90;;;;;;5018637;28;20907;-81
2022/09/02 07:01:56;;;;;;;1.20;0.80;;;9.60;99.90;;;;;;5009434;28;20391;-82
2022/09/02 07:07:15;;;;;;;1.00;0.82;;;9.80;99.90;;;;;;5019260;28;20427;-81
2022/09/02 07:09:50;;;;;;;2.25;0.70;;;9.80;99.90;;;;;;5031518;28;20395;-82
2022/09/02 07:12:18;;;;;;;1.50;0.70;;;9.90;99.90;;;;;;5039138;28;20410;-82
2022/09/02 07:14:57;;;;;;;1.37;0.67;;;9.90;99.90;;;;;;5003699;28;20403;-82
2022/09/02 07:17:33;;;;;;;0.60;0.60;;;10.00;99.90;;;;;;5019377;28;20443;-81
2022/09/02 07:20:05;;;;;;;1.05;0.60;;;10.10;99.90;;;;;;5051444;27;20472;-82
2022/09/02 07:22:55;;;;;;;1.23;0.60;;;10.00;99.90;;;;;;5015053;28;20407;-83
2022/09/02 07:25:26;;;;;;;0.93;0.60;;;10.00;99.90;;;;;;5014312;28;20416;-83
2022/09/02 07:27:53;;;;;;;2.42;0.60;;;10.10;99.90;;;;;;5014781;28;20466;-84
2022/09/02 07:30:23;;;;;;;1.10;0.60;;;10.10;99.90;;;;;;5018237;28;20460;-85
2022/09/02 07:33:17;;;;;;;1.77;0.60;;;10.20;99.90;;;;;;5021891;28;20413;-84
2022/09/02 07:35:45;;;;;;;1.00;0.50;;;10.20;99.90;;;;;;5012917;28;20422;-83
2022/09/02 07:38:16;;;;;;;1.30;0.73;;;10.20;99.90;;;;;;5019949;28;20408;-83
2022/09/02 07:40:45;;;;;;;2.13;0.60;;;10.20;99.90;;;;;;5052895;27;20406;-84
2022/09/02 07:43:14;;;;;;;1.60;0.60;;;10.30;99.90;;;;;;5008618;28;20464;-84
2022/09/02 07:45:43;;;;;;;1.67;0.50;;;10.40;99.90;;;;;;5017748;28;20411;-85
2022/09/02 07:48:14;;;;;;;0.90;0.55;;;10.50;99.90;;;;;;5015394;28;20410;-82
2022/09/02 07:50:44;;;;;;;1.58;0.60;;;10.50;99.90;;;;;;5018196;28;20939;-83
2022/09/02 07:53:15;;;;;;;1.42;0.60;;;10.60;99.90;;;;;;5018717;28;20431;-84
2022/09/02 07:55:46;;;;;;;0.87;0.50;;;10.60;99.90;;;;;;5020786;28;20441;-84
2022/09/02 07:58:18;;;;;;;1.08;0.50;;;10.60;99.90;;;;;;5023638;28;20758;-84
2022/09/02 08:00:49;;;;;;;0.63;0.45;;;10.80;99.90;;;;;;5025117;28;20400;-84
2022/09/02 08:03:18;;;;;;;1.63;0.50;;;10.80;99.90;;;;;;5018390;28;20411;-83
2022/09/02 08:05:51;;;;;;;1.13;0.55;;;10.80;99.90;;;;;;5024357;28;20413;-82
2022/09/02 08:08:19;;;;;;;2.30;0.50;;;10.90;99.90;;;;;;5020353;28;20474;-82
2022/09/02 08:10:49;;;;;;;0.50;0.40;;;10.90;99.90;;;;;;5021409;28;20402;-82
2022/09/02 08:13:18;;;;;;;0.47;0.40;;;10.80;99.90;;;;;;5026387;28;20896;-82
2022/09/02 08:15:47;;;;;;;0.57;0.40;;;10.60;99.90;;;;;;5018300;28;20435;-85
2022/09/02 08:18:18;;;;;;;1.13;0.40;;;10.60;99.90;;;;;;5017419;28;20873;-84
2022/09/02 08:20:49;;;;;;;1.20;0.70;;;10.80;99.90;;;;;;5009247;28;20881;-82
2022/09/02 08:23:18;;;;;;;1.10;0.40;;;11.10;99.90;;;;;;5030580;28;20476;-84
2022/09/02 08:26:06;;;;;;;1.02;0.50;;;11.30;99.90;;;;;;5018049;28;20390;-81
2022/09/02 08:28:38;;;;;;;2.40;0.50;;;11.40;99.90;;;;;;5013683;28;20474;-84
2022/09/02 08:31:08;;;;;;;0.95;0.50;;;11.30;99.90;;;;;;5020251;28;20408;-82
2022/09/02 08:33:36;;;;;;;0.90;0.50;;;11.20;99.90;;;;;;5018200;28;20449;-85
2022/09/02 08:36:07;;;;;;;0.70;0.50;;;11.20;99.90;;;;;;5042093;27;20406;-83
2022/09/02 08:38:36;;;;;;;0.82;0.50;;;11.20;99.90;;;;;;5016269;28;20843;-84
2022/09/02 08:41:37;;;;;;;1.00;0.50;;;11.20;99.90;;;;;;5013907;28;20375;-84
2022/09/02 08:44:13;;;;;;;1.00;0.50;;;11.20;99.90;;;;;;5023712;27;20407;-83
2022/09/02 08:46:42;;;;;;;0.52;0.43;;;11.70;99.90;;;;;;5019620;28;20496;-84
2022/09/02 08:49:24;;;;;;;0.80;0.57;;;11.90;99.90;;;;;;5017056;28;20397;-84
2022/09/02 08:52:00;;;;;;;0.95;0.40;;;11.90;99.90;;;;;;5008829;28;20391;-83
2022/09/02 08:54:43;;;;;;;0.90;0.43;;;11.90;99.90;;;;;;5009122;28;20407;-84
2022/09/02 08:57:12;;;;;;;2.10;0.50;;;11.70;99.90;;;;;;5017094;28;20429;-84
2022/09/02 08:59:42;;;;;;;0.55;0.43;;;11.60;99.90;;;;;;5012263;28;20453;-84
2022/09/02 09:02:44;;;;;;;0.88;0.40;;;11.60;99.90;;;;;;5013455;28;20409;-83
2022/09/02 09:05:22;;;;;;;0.53;0.43;;;11.50;99.90;;;;;;5015558;28;20407;-84
2022/09/02 09:08:15;;;;;;;0.68;0.50;;;11.50;99.90;;;;;;5008960;28;20399;-84
2022/09/02 09:10:59;;;;;;;0.88;0.50;;;11.50;99.90;;;;;;5008549;28;20426;-83
2022/09/02 09:13:44;;;;;;;1.00;0.40;;;11.70;99.90;;;;;;5007864;28;20442;-83
2022/09/02 09:16:14;;;;;;;0.57;0.50;;;11.70;99.90;;;;;;5015831;28;20782;-85
2022/09/02 09:19:18;;;;;;;1.67;0.50;;;11.80;99.90;;;;;;5019365;28;20405;-82
2022/09/02 09:21:49;;;;;;;1.17;0.52;;;11.70;99.90;;;;;;5026707;28;20407;-84
2022/09/02 09:24:33;;;;;;;1.48;0.40;;;11.60;99.90;;;;;;5018233;28;20400;-83
2022/09/02 09:27:10;;;;;;;1.25;0.50;;;11.50;99.90;;;;;;5018721;28;20489;-83
2022/09/02 09:29:39;;;;;;;0.57;0.40;;;11.40;99.90;;;;;;5020476;28;20455;-83
2022/09/02 09:32:41;;;;;;;0.50;0.50;;;11.30;99.90;;;;;;5011097;28;20401;-84
2022/09/02 09:35:14;;;;;;;1.30;0.60;;;11.20;99.90;;;;;;5014785;28;20403;-84
2022/09/02 09:37:48;;;;;;;0.80;0.50;;;11.30;99.90;;;;;;5050098;27;20415;-84
2022/09/02 09:40:24;;;;;;;0.57;0.45;;;11.20;99.90;;;;;;5020777;28;20382;-84
2022/09/02 09:43:16;;;;;;;0.60;0.52;;;11.20;99.90;;;;;;5021531;28;20402;-82
2022/09/02 09:45:46;;;;;;;2.30;0.52;;;11.10;99.90;;;;;;5051364;28;20409;-85
2022/09/02 09:48:16;;;;;;;0.70;0.40;;;11.10;99.90;;;;;;5019333;28;20401;-84
2022/09/02 09:51:11;;;;;;;0.93;0.50;;;11.10;99.90;;;;;;5018443;28;20410;-84
2022/09/02 09:53:40;;;;;;;0.67;0.43;;;11.30;99.90;;;;;;5022847;28;20437;-83
2022/09/02 09:56:29;;;;;;;1.20;0.40;;;11.30;99.90;;;;;;5008497;28;20456;-84
2022/09/02 09:58:56;;;;;;;2.80;0.68;;;11.60;99.90;;;;;;5032379;28;20380;-84
2022/09/02 10:01:31;;;;;;;4.35;0.50;;;12.00;99.90;;;;;;5017053;28;20401;-85
2022/09/02 10:04:20;;;;;;;1.85;0.47;;;12.30;99.90;;;;;;5027879;28;20386;-83
2022/09/02 10:07:12;;;;;;;0.40;0.30;;;12.50;99.90;;;;;;5022032;28;20436;-82
2022/09/02 10:09:40;;;;;;;1.47;0.50;;;12.50;99.90;;;;;;5011539;28;20401;-82
2022/09/02 10:12:12;;;;;;;0.68;0.40;;;12.30;99.90;;;;;;5019110;28;20422;-82
2022/09/02 10:14:47;;;;;;;0.50;0.40;;;12.30;99.90;;;;;;5017347;28;20769;-81
2022/09/02 10:17:43;;;;;;;0.45;0.32;;;12.20;99.90;;;;;;5003930;28;20423;-80
2022/09/02 10:20:37;;;;;;;1.25;0.50;;;12.20;99.90;;;;;;5023306;28;20400;-82
2022/09/02 10:23:56;;;;;;;1.10;0.50;;;12.00;99.90;;;;;;5026112;28;20409;-82
2022/09/02 10:26:50;;;;;;;0.90;0.50;;;11.90;99.90;;;;;;5025537;28;20399;-82
2022/09/02 10:29:50;;;;;;;0.50;0.47;;;11.90;99.90;;;;;;5049694;27;20947;-82
2022/09/02 10:32:51;;;;;;;0.60;0.50;;;11.90;99.90;;;;;;5016585;28;20409;-82
2022/09/02 10:35:22;;;;;;;2.83;0.50;;;12.00;99.90;;;;;;5020630;28;20433;-81
2022/09/02 10:38:13;;;;;;;0.88;0.50;;;12.00;99.90;;;;;;5010939;28;20387;-82
2022/09/02 10:40:49;;;;;;;1.25;0.65;;;12.00;99.90;;;;;;5010424;28;20435;-81
2022/09/02 10:43:23;;;;;;;1.55;0.50;;;12.00;99.90;;;;;;5032864;28;20418;-81
2022/09/02 10:45:58;;;;;;;0.57;0.57;;;12.00;99.90;;;;;;5018555;28;20403;-82
2022/09/02 10:48:55;;;;;;;1.20;0.50;;;11.90;99.90;;;;;;5019764;28;20435;-82
2022/09/02 10:51:38;;;;;;;1.47;0.60;;;11.90;99.90;;;;;;5027763;28;20454;-81
2022/09/02 10:54:28;;;;;;;1.15;0.60;;;11.90;99.90;;;;;;5019708;28;20414;-81
2022/09/02 10:57:13;;;;;;;0.63;0.50;;;11.90;99.90;;;;;;5015442;28;20407;-82
2022/09/02 10:59:52;;;;;;;1.45;0.50;;;12.10;99.90;;;;;;5019524;28;20407;-82
2022/09/02 11:02:49;;;;;;;1.25;0.70;;;12.30;99.90;;;;;;5017711;28;20406;-83
2022/09/02 11:05:27;;;;;;;1.20;0.50;;;12.30;99.90;;;;;;5077963;28;20432;-82
2022/09/02 11:08:05;;;;;;;0.77;0.50;;;12.20;99.90;;;;;;5017290;28;20402;-82
2022/09/02 11:10:40;;;;;;;1.50;0.60;;;12.20;99.90;;;;;;5017276;28;20464;-82
2022/09/02 11:13:23;;;;;;;0.90;0.52;;;12.20;99.90;;;;;;5052533;27;20409;-82
2022/09/02 11:15:56;;;;;;;1.10;0.60;;;12.20;99.90;;;;;;5017158;28;20444;-81
2022/09/02 11:18:57;;;;;;;1.45;0.63;;;12.20;99.90;;;;;;5021474;28;20429;-83
2022/09/02 11:21:53;;;;;;;1.25;0.45;;;12.20;99.90;;;;;;5057802;28;20964;-80
2022/09/02 11:24:38;;;;;;;0.55;0.50;;;12.10;99.90;;;;;;5019075;28;20894;-82
2022/09/02 11:27:19;;;;;;;2.03;0.60;;;12.10;99.90;;;;;;5019145;28;20424;-83
2022/09/02 11:30:11;;;;;;;0.55;0.40;;;12.10;99.90;;;;;;5018531;28;20488;-83
2022/09/02 11:32:43;;;;;;;0.50;0.43;;;12.20;99.90;;;;;;5013647;28;21271;-83
2022/09/02 11:35:17;;;;;;;1.83;0.50;;;12.20;99.90;;;;;;5024827;28;20419;-83
2022/09/02 11:37:48;;;;;;;0.40;0.40;;;12.20;99.90;;;;;;5010082;28;20407;-82
2022/09/02 11:40:25;;;;;;;1.05;0.50;;;12.30;99.90;;;;;;5010157;28;20403;-83
2022/09/02 11:43:26;;;;;;;0.73;0.47;;;12.40;99.90;;;;;;5015180;28;20394;-82
2022/09/02 11:46:13;;;;;;;0.50;0.40;;;12.40;99.90;;;;;;5018018;28;20399;-82
2022/09/02 11:49:16;;;;;;;1.00;0.60;;;12.40;99.90;;;;;;5020757;28;20402;-82
2022/09/02 11:52:28;;;;;;;2.30;0.80;;;12.40;99.90;;;;;;5020788;28;20906;-82
2022/09/02 11:55:08;;;;;;;1.10;0.60;;;12.40;99.90;;;;;;5018838;28;20399;-83
2022/09/02 11:57:40;;;;;;;0.70;0.50;;;12.40;99.90;;;;;;5016394;28;20504;-82
2022/09/02 12:00:25;;;;;;;0.65;0.57;;;12.40;99.90;;;;;;5019044;28;20383;-82
2022/09/02 12:02:56;;;;;;;0.80;0.50;;;12.40;99.90;;;;;;5023017;28;20431;-81
2022/09/02 12:05:30;;;;;;;0.50;0.35;;;12.50;99.90;;;;;;5018667;28;20816;-81
2022/09/02 12:08:05;;;;;;;0.50;0.40;;;12.60;99.90;;;;;;5019268;28;20913;-82
2022/09/02 12:10:46;;;;;;;0.90;0.30;;;12.80;99.90;;;;;;5016311;28;20472;-81
2022/09/02 12:13:39;;;;;;;0.60;0.30;;;13.00;99.90;;;;;;5048005;28;20418;-82
2022/09/02 12:16:18;;;;;;;0.60;0.40;;;13.50;99.90;;;;;;5016715;28;20417;-81
2022/09/02 12:18:54;;;;;;;0.50;0.40;;;13.80;99.90;;;;;;5021428;28;20410;-82
2022/09/02 12:21:24;;;;;;;0.30;0.30;;;14.00;99.90;;;;;;5015970;27;20516;-83
2022/09/02 12:23:54;;;;;;;0.20;0.20;;;14.00;99.90;;;;;;5015369;28;20426;-81
2022/09/02 12:26:28;;;;;;;0.73;0.30;;;14.20;99.90;;;;;;5022082;28;20410;-82
2022/09/02 12:29:28;;;;;;;0.60;0.20;;;14.20;99.90;;;;;;5014446;28;20487;-82
2022/09/02 12:31:56;;;;;;;0.30;0.30;;;14.30;99.90;;;;;;5009939;28;20383;-82
2022/09/02 12:34:24;;;;;;;1.40;0.70;;;14.30;99.90;;;;;;5019223;28;20390;-82
2022/09/02 12:36:56;;;;;;;0.68;0.35;;;14.30;99.90;;;;;;5020094;28;20486;-82
2022/09/02 12:39:24;;;;;;;1.05;0.40;;;14.60;99.90;;;;;;5048675;28;20497;-82
2022/09/02 12:42:09;;;;;;;1.55;0.30;;;14.60;99.90;;;;;;5013766;28;20395;-83
2022/09/02 12:44:52;;;;;;;0.40;0.40;;;14.60;99.90;;;;;;5023116;28;20422;-84
2022/09/02 12:47:23;;;;;;;0.47;0.30;;;14.70;99.90;;;;;;5020138;28;20452;-84
2022/09/02 12:50:08;;;;;;;0.30;0.30;;;15.00;99.90;;;;;;5012109;28;20443;-82
2022/09/02 12:52:42;;;;;;;1.15;0.30;;;15.00;99.90;;;;;;5018238;28;20407;-83
2022/09/02 12:55:24;;;;;;;0.70;0.40;;;15.10;99.90;;;;;;5018278;28;20406;-84
2022/09/02 12:58:10;;;;;;;1.60;0.40;;;15.10;99.90;;;;;;5032383;28;20420;-83
2022/09/02 13:01:04;;;;;;;0.90;0.40;;;15.10;99.90;;;;;;5013493;28;20387;-83
2022/09/02 13:03:47;;;;;;;0.50;0.30;;;15.20;99.90;;;;;;5016700;28;20437;-83
2022/09/02 13:06:55;;;;;;;0.80;0.40;;;15.40;99.90;;;;;;5023732;28;20914;-83
2022/09/02 13:09:42;;;;;;;0.70;0.40;;;15.50;99.90;;;;;;5011148;28;20402;-82
2022/09/02 13:12:46;;;;;;;0.50;0.40;;;15.50;99.90;;;;;;5020156;28;20400;-83
2022/09/02 13:15:42;;;;;;;1.33;0.30;;;15.70;99.90;;;;;;5019922;28;20430;-83
2022/09/02 13:18:18;;;;;;;0.60;0.30;;;15.80;99.90;;;;;;5008267;28;20411;-82
2022/09/02 13:21:05;;;;;;;2.22;0.35;;;15.80;99.90;;;;;;5017763;28;20842;-83
2022/09/02 13:23:58;;;;;;;0.47;0.40;;;15.60;99.90;;;;;;5015446;28;20411;-84
2022/09/02 13:26:29;;;;;;;0.60;0.35;;;15.60;99.90;;;;;;5019555;28;20427;-83
2022/09/02 13:29:35;;;;;;;0.30;0.30;;;15.60;99.90;;;;;;5017972;28;20406;-82
2022/09/02 13:32:24;;;;;;;0.43;0.30;;;15.70;99.90;;;;;;5012887;28;20456;-83
2022/09/02 13:34:56;;;;;;;0.47;0.30;;;15.80;99.90;;;;;;5019654;28;20410;-82
2022/09/02 13:37:27;;;;;;;1.00;0.30;;;15.50;99.90;;;;;;5018011;28;20508;-80